Terminal Aerodrome Forecast
Issued by NWS Charleston, WV

Home | Current Version | Previous Version | Text Only | Print | Product List | Glossary On
Versions: 1 2 3 4 5 6 7 8 9 10 11 12 13 14 15 16 17 18 19 20 21 22 23 24 25
000
FTUS41 KRLX 290500
TAFBKW
TAF
KBKW 290540Z 2906/3006 31003KT P6SM SCT008 SCT015 OVC035
      TEMPO 2906/2909 BKN008 BKN015
     FM291200 29006KT P6SM SCT015
     FM291700 31007KT P6SM VCSH BKN040
     FM292200 33006KT P6SM SCT050=

USA.gov is the U.S. government's official web portal to all federal, state and local government web resources and services.